sensor_id;sensor_type;location;lat;lon;timestamp;P1;durP1;ratioP1;P2;durP2;ratioP2
17482;SDS011;8858;52.308;20.994;2023-01-25T00:02:00;18.37;;;14.50;;
17482;SDS011;8858;52.308;20.994;2023-01-25T00:04:29;18.53;;;13.73;;
17482;SDS011;8858;52.308;20.994;2023-01-25T00:06:57;19.03;;;14.17;;
17482;SDS011;8858;52.308;20.994;2023-01-25T00:09:26;17.93;;;13.47;;
17482;SDS011;8858;52.308;20.994;2023-01-25T00:11:56;14.60;;;12.63;;
17482;SDS011;8858;52.308;20.994;2023-01-25T00:14:24;16.53;;;13.23;;
17482;SDS011;8858;52.308;20.994;2023-01-25T00:16:54;13.53;;;11.80;;
17482;SDS011;8858;52.308;20.994;2023-01-25T00:19:26;13.70;;;11.77;;
17482;SDS011;8858;52.308;20.994;2023-01-25T00:21:54;16.40;;;12.80;;
17482;SDS011;8858;52.308;20.994;2023-01-25T00:24:24;15.67;;;12.83;;
17482;SDS011;8858;52.308;20.994;2023-01-25T00:26:53;15.37;;;13.40;;
17482;SDS011;8858;52.308;20.994;2023-01-25T00:29:22;16.30;;;13.63;;
17482;SDS011;8858;52.308;20.994;2023-01-25T00:31:57;16.17;;;14.40;;
17482;SDS011;8858;52.308;20.994;2023-01-25T00:34:42;19.63;;;15.37;;
17482;SDS011;8858;52.308;20.994;2023-01-25T00:37:13;16.43;;;14.10;;
17482;SDS011;8858;52.308;20.994;2023-01-25T00:39:47;17.77;;;14.43;;
17482;SDS011;8858;52.308;20.994;2023-01-25T00:42:19;16.90;;;14.20;;
17482;SDS011;8858;52.308;20.994;2023-01-25T00:44:47;15.63;;;13.37;;
17482;SDS011;8858;52.308;20.994;2023-01-25T00:47:19;20.63;;;14.83;;
17482;SDS011;8858;52.308;20.994;2023-01-25T00:49:49;16.27;;;13.67;;
17482;SDS011;8858;52.308;20.994;2023-01-25T00:52:18;15.73;;;13.47;;
17482;SDS011;8858;52.308;20.994;2023-01-25T00:54:47;16.00;;;13.33;;
17482;SDS011;8858;52.308;20.994;2023-01-25T00:57:17;15.37;;;12.93;;
17482;SDS011;8858;52.308;20.994;2023-01-25T00:59:45;16.10;;;13.47;;
17482;SDS011;8858;52.308;20.994;2023-01-25T01:02:13;15.53;;;12.87;;
17482;SDS011;8858;52.308;20.994;2023-01-25T01:04:43;17.20;;;13.90;;
17482;SDS011;8858;52.308;20.994;2023-01-25T01:07:12;19.30;;;13.87;;
17482;SDS011;8858;52.308;20.994;2023-01-25T01:09:43;17.47;;;14.87;;
17482;SDS011;8858;52.308;20.994;2023-01-25T01:12:13;16.17;;;13.53;;
17482;SDS011;8858;52.308;20.994;2023-01-25T01:14:41;15.33;;;11.83;;
17482;SDS011;8858;52.308;20.994;2023-01-25T01:17:10;16.73;;;13.17;;
17482;SDS011;8858;52.308;20.994;2023-01-25T01:19:40;13.77;;;11.67;;
17482;SDS011;8858;52.308;20.994;2023-01-25T01:22:10;14.00;;;12.00;;
17482;SDS011;8858;52.308;20.994;2023-01-25T01:24:40;14.77;;;11.90;;
17482;SDS011;8858;52.308;20.994;2023-01-25T01:27:08;14.67;;;12.83;;
17482;SDS011;8858;52.308;20.994;2023-01-25T01:29:36;14.07;;;11.93;;
17482;SDS011;8858;52.308;20.994;2023-01-25T01:32:05;16.03;;;13.17;;
17482;SDS011;8858;52.308;20.994;2023-01-25T01:34:34;15.47;;;13.30;;
17482;SDS011;8858;52.308;20.994;2023-01-25T01:37:03;15.47;;;12.30;;
17482;SDS011;8858;52.308;20.994;2023-01-25T01:39:32;13.33;;;11.70;;
17482;SDS011;8858;52.308;20.994;2023-01-25T01:42:02;15.13;;;13.17;;
17482;SDS011;8858;52.308;20.994;2023-01-25T01:44:40;15.23;;;13.00;;
17482;SDS011;8858;52.308;20.994;2023-01-25T01:47:13;14.27;;;12.47;;
17482;SDS011;8858;52.308;20.994;2023-01-25T01:49:49;14.83;;;12.70;;
17482;SDS011;8858;52.308;20.994;2023-01-25T01:52:22;14.80;;;12.43;;
17482;SDS011;8858;52.308;20.994;2023-01-25T01:54:58;15.67;;;13.00;;
17482;SDS011;8858;52.308;20.994;2023-01-25T01:57:31;15.63;;;12.47;;
17482;SDS011;8858;52.308;20.994;2023-01-25T02:00:07;15.03;;;12.90;;
17482;SDS011;8858;52.308;20.994;2023-01-25T02:02:40;15.40;;;12.97;;
17482;SDS011;8858;52.308;20.994;2023-01-25T02:05:11;15.43;;;12.40;;
17482;SDS011;8858;52.308;20.994;2023-01-25T02:07:44;14.53;;;12.23;;
17482;SDS011;8858;52.308;20.994;2023-01-25T02:10:19;15.27;;;12.97;;
17482;SDS011;8858;52.308;20.994;2023-01-25T02:12:51;15.90;;;11.90;;
17482;SDS011;8858;52.308;20.994;2023-01-25T02:15:26;15.10;;;12.77;;
17482;SDS011;8858;52.308;20.994;2023-01-25T02:17:56;15.83;;;12.73;;
17482;SDS011;8858;52.308;20.994;2023-01-25T02:20:28;14.67;;;12.70;;
17482;SDS011;8858;52.308;20.994;2023-01-25T02:23:05;15.03;;;13.43;;
17482;SDS011;8858;52.308;20.994;2023-01-25T02:25:43;14.13;;;12.13;;
17482;SDS011;8858;52.308;20.994;2023-01-25T02:28:13;13.40;;;11.97;;
17482;SDS011;8858;52.308;20.994;2023-01-25T02:30:47;13.07;;;11.23;;
17482;SDS011;8858;52.308;20.994;2023-01-25T02:33:16;13.97;;;11.13;;
17482;SDS011;8858;52.308;20.994;2023-01-25T02:36:17;13.00;;;11.13;;
17482;SDS011;8858;52.308;20.994;2023-01-25T02:38:52;12.83;;;11.50;;
17482;SDS011;8858;52.308;20.994;2023-01-25T02:41:26;13.87;;;11.57;;
17482;SDS011;8858;52.308;20.994;2023-01-25T02:44:01;13.53;;;11.30;;
17482;SDS011;8858;52.308;20.994;2023-01-25T02:46:32;14.83;;;11.70;;
17482;SDS011;8858;52.308;20.994;2023-01-25T02:49:03;14.33;;;11.30;;
17482;SDS011;8858;52.308;20.994;2023-01-25T02:51:35;16.43;;;11.80;;
17482;SDS011;8858;52.308;20.994;2023-01-25T02:54:08;15.30;;;11.43;;
17482;SDS011;8858;52.308;20.994;2023-01-25T02:56:40;15.73;;;13.27;;
17482;SDS011;8858;52.308;20.994;2023-01-25T02:59:09;13.93;;;11.50;;
17482;SDS011;8858;52.308;20.994;2023-01-25T03:01:45;15.53;;;12.63;;
17482;SDS011;8858;52.308;20.994;2023-01-25T03:04:18;16.47;;;12.50;;
17482;SDS011;8858;52.308;20.994;2023-01-25T03:06:47;17.00;;;13.40;;
17482;SDS011;8858;52.308;20.994;2023-01-25T03:09:19;15.53;;;13.27;;
17482;SDS011;8858;52.308;20.994;2023-01-25T03:11:50;16.03;;;14.17;;
17482;SDS011;8858;52.308;20.994;2023-01-25T03:14:21;16.93;;;13.90;;
17482;SDS011;8858;52.308;20.994;2023-01-25T03:16:52;15.93;;;13.50;;
17482;SDS011;8858;52.308;20.994;2023-01-25T03:19:22;14.70;;;12.20;;
17482;SDS011;8858;52.308;20.994;2023-01-25T03:21:51;15.37;;;13.07;;
17482;SDS011;8858;52.308;20.994;2023-01-25T03:24:19;14.87;;;11.93;;
17482;SDS011;8858;52.308;20.994;2023-01-25T03:26:51;19.33;;;12.43;;
17482;SDS011;8858;52.308;20.994;2023-01-25T03:30:00;15.17;;;12.43;;
17482;SDS011;8858;52.308;20.994;2023-01-25T03:32:31;15.27;;;12.57;;
17482;SDS011;8858;52.308;20.994;2023-01-25T03:35:06;15.50;;;12.57;;
17482;SDS011;8858;52.308;20.994;2023-01-25T03:37:35;15.03;;;13.13;;
17482;SDS011;8858;52.308;20.994;2023-01-25T03:40:04;15.57;;;12.90;;
17482;SDS011;8858;52.308;20.994;2023-01-25T03:42:45;15.87;;;12.50;;
17482;SDS011;8858;52.308;20.994;2023-01-25T03:45:14;14.50;;;12.40;;
17482;SDS011;8858;52.308;20.994;2023-01-25T03:47:49;15.17;;;12.57;;
17482;SDS011;8858;52.308;20.994;2023-01-25T03:50:17;15.83;;;12.87;;
17482;SDS011;8858;52.308;20.994;2023-01-25T03:52:46;16.37;;;13.83;;
17482;SDS011;8858;52.308;20.994;2023-01-25T03:55:21;18.20;;;14.67;;
17482;SDS011;8858;52.308;20.994;2023-01-25T03:57:51;19.33;;;15.40;;
17482;SDS011;8858;52.308;20.994;2023-01-25T04:00:20;19.27;;;15.50;;
17482;SDS011;8858;52.308;20.994;2023-01-25T04:02:56;19.93;;;15.40;;
17482;SDS011;8858;52.308;20.994;2023-01-25T04:05:28;23.13;;;17.23;;
17482;SDS011;8858;52.308;20.994;2023-01-25T04:07:57;21.03;;;17.37;;
17482;SDS011;8858;52.308;20.994;2023-01-25T04:10:35;21.90;;;17.60;;
17482;SDS011;8858;52.308;20.994;2023-01-25T04:13:05;21.70;;;17.73;;
17482;SDS011;8858;52.308;20.994;2023-01-25T04:15:36;23.00;;;18.73;;
17482;SDS011;8858;52.308;20.994;2023-01-25T04:18:12;22.97;;;18.33;;
17482;SDS011;8858;52.308;20.994;2023-01-25T04:20:44;25.63;;;18.13;;
17482;SDS011;8858;52.308;20.994;2023-01-25T04:23:19;24.17;;;19.37;;
17482;SDS011;8858;52.308;20.994;2023-01-25T04:25:51;24.23;;;19.67;;
17482;SDS011;8858;52.308;20.994;2023-01-25T04:28:23;25.03;;;20.43;;
17482;SDS011;8858;52.308;20.994;2023-01-25T04:30:53;27.00;;;20.63;;
17482;SDS011;8858;52.308;20.994;2023-01-25T04:33:27;26.77;;;21.27;;
17482;SDS011;8858;52.308;20.994;2023-01-25T04:35:56;28.87;;;21.43;;
17482;SDS011;8858;52.308;20.994;2023-01-25T04:38:27;29.03;;;21.03;;
17482;SDS011;8858;52.308;20.994;2023-01-25T04:40:56;28.60;;;22.33;;
17482;SDS011;8858;52.308;20.994;2023-01-25T04:43:29;30.77;;;22.60;;
17482;SDS011;8858;52.308;20.994;2023-01-25T04:46:04;29.47;;;22.07;;
17482;SDS011;8858;52.308;20.994;2023-01-25T04:48:36;34.70;;;24.37;;
17482;SDS011;8858;52.308;20.994;2023-01-25T04:51:06;29.63;;;22.53;;
17482;SDS011;8858;52.308;20.994;2023-01-25T04:53:35;31.80;;;23.33;;
17482;SDS011;8858;52.308;20.994;2023-01-25T04:56:05;30.07;;;22.43;;
17482;SDS011;8858;52.308;20.994;2023-01-25T04:58:44;35.67;;;24.80;;
17482;SDS011;8858;52.308;20.994;2023-01-25T05:01:13;28.00;;;21.90;;
17482;SDS011;8858;52.308;20.994;2023-01-25T05:03:42;31.00;;;23.37;;
17482;SDS011;8858;52.308;20.994;2023-01-25T05:06:23;34.00;;;24.57;;
17482;SDS011;8858;52.308;20.994;2023-01-25T05:08:52;33.67;;;23.57;;
17482;SDS011;8858;52.308;20.994;2023-01-25T05:11:26;31.10;;;23.83;;
17482;SDS011;8858;52.308;20.994;2023-01-25T05:14:06;33.43;;;24.30;;
17482;SDS011;8858;52.308;20.994;2023-01-25T05:16:40;33.43;;;23.87;;
17482;SDS011;8858;52.308;20.994;2023-01-25T05:19:08;35.40;;;24.80;;
17482;SDS011;8858;52.308;20.994;2023-01-25T05:21:50;35.50;;;25.87;;
17482;SDS011;8858;52.308;20.994;2023-01-25T05:24:36;38.03;;;24.90;;
17482;SDS011;8858;52.308;20.994;2023-01-25T05:27:09;34.93;;;25.33;;
17482;SDS011;8858;52.308;20.994;2023-01-25T05:30:05;34.93;;;24.77;;
17482;SDS011;8858;52.308;20.994;2023-01-25T05:32:47;34.03;;;24.47;;
17482;SDS011;8858;52.308;20.994;2023-01-25T05:35:16;33.00;;;25.00;;
17482;SDS011;8858;52.308;20.994;2023-01-25T05:37:46;34.63;;;25.73;;
17482;SDS011;8858;52.308;20.994;2023-01-25T05:40:20;37.97;;;26.30;;
17482;SDS011;8858;52.308;20.994;2023-01-25T05:42:55;39.77;;;25.73;;
17482;SDS011;8858;52.308;20.994;2023-01-25T05:45:27;39.20;;;26.60;;
17482;SDS011;8858;52.308;20.994;2023-01-25T05:47:56;38.50;;;25.90;;
17482;SDS011;8858;52.308;20.994;2023-01-25T05:50:25;38.70;;;26.40;;
17482;SDS011;8858;52.308;20.994;2023-01-25T05:53:04;40.87;;;27.67;;
17482;SDS011;8858;52.308;20.994;2023-01-25T05:55:34;41.27;;;26.60;;
17482;SDS011;8858;52.308;20.994;2023-01-25T05:58:10;39.13;;;26.53;;
17482;SDS011;8858;52.308;20.994;2023-01-25T06:00:39;37.00;;;26.87;;
17482;SDS011;8858;52.308;20.994;2023-01-25T06:03:13;40.30;;;26.70;;
17482;SDS011;8858;52.308;20.994;2023-01-25T06:05:43;42.73;;;28.27;;
17482;SDS011;8858;52.308;20.994;2023-01-25T06:08:12;41.67;;;27.23;;
17482;SDS011;8858;52.308;20.994;2023-01-25T06:10:47;41.00;;;28.30;;
17482;SDS011;8858;52.308;20.994;2023-01-25T06:13:16;38.13;;;27.33;;
17482;SDS011;8858;52.308;20.994;2023-01-25T06:15:51;39.70;;;29.33;;
17482;SDS011;8858;52.308;20.994;2023-01-25T06:18:38;43.60;;;28.80;;
17482;SDS011;8858;52.308;20.994;2023-01-25T06:21:28;39.97;;;27.13;;
17482;SDS011;8858;52.308;20.994;2023-01-25T06:24:04;42.20;;;27.77;;
17482;SDS011;8858;52.308;20.994;2023-01-25T06:26:33;40.00;;;28.13;;
17482;SDS011;8858;52.308;20.994;2023-01-25T06:29:03;42.37;;;27.63;;
17482;SDS011;8858;52.308;20.994;2023-01-25T06:31:33;38.87;;;27.37;;
17482;SDS011;8858;52.308;20.994;2023-01-25T06:34:02;38.67;;;27.37;;
17482;SDS011;8858;52.308;20.994;2023-01-25T06:36:32;39.00;;;27.97;;
17482;SDS011;8858;52.308;20.994;2023-01-25T06:39:00;60.97;;;40.23;;
17482;SDS011;8858;52.308;20.994;2023-01-25T06:41:29;41.13;;;28.90;;
17482;SDS011;8858;52.308;20.994;2023-01-25T06:43:57;41.03;;;28.40;;
17482;SDS011;8858;52.308;20.994;2023-01-25T06:46:25;46.00;;;29.63;;
17482;SDS011;8858;52.308;20.994;2023-01-25T06:48:57;43.80;;;29.57;;
17482;SDS011;8858;52.308;20.994;2023-01-25T06:51:25;44.93;;;29.50;;
17482;SDS011;8858;52.308;20.994;2023-01-25T06:53:53;43.00;;;29.13;;
17482;SDS011;8858;52.308;20.994;2023-01-25T06:56:22;42.77;;;30.03;;
17482;SDS011;8858;52.308;20.994;2023-01-25T06:58:52;46.07;;;29.97;;
17482;SDS011;8858;52.308;20.994;2023-01-25T07:01:24;41.97;;;28.50;;
17482;SDS011;8858;52.308;20.994;2023-01-25T07:03:57;42.73;;;27.63;;
17482;SDS011;8858;52.308;20.994;2023-01-25T07:06:29;39.73;;;28.37;;
17482;SDS011;8858;52.308;20.994;2023-01-25T07:09:02;40.00;;;27.10;;
17482;SDS011;8858;52.308;20.994;2023-01-25T07:11:33;41.87;;;27.07;;
17482;SDS011;8858;52.308;20.994;2023-01-25T07:14:02;39.63;;;28.20;;
17482;SDS011;8858;52.308;20.994;2023-01-25T07:16:31;43.60;;;28.73;;
17482;SDS011;8858;52.308;20.994;2023-01-25T07:19:10;39.30;;;26.53;;
17482;SDS011;8858;52.308;20.994;2023-01-25T07:21:42;40.37;;;26.57;;
17482;SDS011;8858;52.308;20.994;2023-01-25T07:24:16;44.90;;;28.43;;
17482;SDS011;8858;52.308;20.994;2023-01-25T07:26:45;44.63;;;29.33;;
17482;SDS011;8858;52.308;20.994;2023-01-25T07:29:16;44.50;;;28.47;;
17482;SDS011;8858;52.308;20.994;2023-01-25T07:31:44;44.57;;;29.70;;
17482;SDS011;8858;52.308;20.994;2023-01-25T07:34:14;39.83;;;27.63;;
17482;SDS011;8858;52.308;20.994;2023-01-25T07:36:46;42.90;;;28.73;;
17482;SDS011;8858;52.308;20.994;2023-01-25T07:39:14;42.63;;;28.87;;
17482;SDS011;8858;52.308;20.994;2023-01-25T07:41:44;43.10;;;29.13;;
17482;SDS011;8858;52.308;20.994;2023-01-25T07:44:17;44.83;;;28.70;;
17482;SDS011;8858;52.308;20.994;2023-01-25T07:46:48;44.97;;;28.43;;
17482;SDS011;8858;52.308;20.994;2023-01-25T07:49:19;45.43;;;29.57;;
17482;SDS011;8858;52.308;20.994;2023-01-25T07:51:48;41.03;;;28.50;;
17482;SDS011;8858;52.308;20.994;2023-01-25T07:54:20;40.07;;;28.83;;
17482;SDS011;8858;52.308;20.994;2023-01-25T07:56:48;49.10;;;30.93;;
17482;SDS011;8858;52.308;20.994;2023-01-25T07:59:20;46.87;;;30.87;;
17482;SDS011;8858;52.308;20.994;2023-01-25T08:01:49;41.67;;;28.57;;
17482;SDS011;8858;52.308;20.994;2023-01-25T08:04:20;41.03;;;29.53;;
17482;SDS011;8858;52.308;20.994;2023-01-25T08:06:48;42.17;;;28.50;;
17482;SDS011;8858;52.308;20.994;2023-01-25T08:09:17;38.80;;;27.37;;
17482;SDS011;8858;52.308;20.994;2023-01-25T08:11:48;42.37;;;29.30;;
17482;SDS011;8858;52.308;20.994;2023-01-25T08:14:19;45.27;;;29.70;;
17482;SDS011;8858;52.308;20.994;2023-01-25T08:16:47;39.93;;;28.43;;
17482;SDS011;8858;52.308;20.994;2023-01-25T08:19:17;40.47;;;28.23;;
17482;SDS011;8858;52.308;20.994;2023-01-25T08:21:47;40.57;;;27.83;;
17482;SDS011;8858;52.308;20.994;2023-01-25T08:24:16;39.77;;;27.93;;
17482;SDS011;8858;52.308;20.994;2023-01-25T08:26:46;40.90;;;28.80;;
17482;SDS011;8858;52.308;20.994;2023-01-25T08:29:14;42.60;;;29.57;;
17482;SDS011;8858;52.308;20.994;2023-01-25T08:31:47;44.63;;;29.30;;
17482;SDS011;8858;52.308;20.994;2023-01-25T08:34:15;40.50;;;28.20;;
17482;SDS011;8858;52.308;20.994;2023-01-25T08:36:45;38.33;;;26.00;;
17482;SDS011;8858;52.308;20.994;2023-01-25T08:39:20;37.77;;;25.70;;
17482;SDS011;8858;52.308;20.994;2023-01-25T08:41:53;39.30;;;26.00;;
17482;SDS011;8858;52.308;20.994;2023-01-25T08:44:22;36.27;;;26.60;;
17482;SDS011;8858;52.308;20.994;2023-01-25T08:46:51;38.93;;;28.17;;
17482;SDS011;8858;52.308;20.994;2023-01-25T08:49:23;39.43;;;26.67;;
17482;SDS011;8858;52.308;20.994;2023-01-25T08:51:54;39.33;;;28.17;;
17482;SDS011;8858;52.308;20.994;2023-01-25T08:54:24;39.63;;;28.83;;
17482;SDS011;8858;52.308;20.994;2023-01-25T08:56:52;39.27;;;26.20;;
17482;SDS011;8858;52.308;20.994;2023-01-25T08:59:20;39.20;;;26.97;;
17482;SDS011;8858;52.308;20.994;2023-01-25T09:01:50;36.03;;;26.60;;
17482;SDS011;8858;52.308;20.994;2023-01-25T09:04:18;37.20;;;26.10;;
17482;SDS011;8858;52.308;20.994;2023-01-25T09:06:57;36.57;;;26.47;;
17482;SDS011;8858;52.308;20.994;2023-01-25T09:09:25;37.77;;;26.20;;
17482;SDS011;8858;52.308;20.994;2023-01-25T09:11:56;34.17;;;25.60;;
17482;SDS011;8858;52.308;20.994;2023-01-25T09:14:25;38.37;;;27.57;;
17482;SDS011;8858;52.308;20.994;2023-01-25T09:16:53;38.23;;;27.77;;
17482;SDS011;8858;52.308;20.994;2023-01-25T09:19:21;36.37;;;27.10;;
17482;SDS011;8858;52.308;20.994;2023-01-25T09:21:50;34.17;;;25.30;;
17482;SDS011;8858;52.308;20.994;2023-01-25T09:24:19;39.53;;;26.80;;
17482;SDS011;8858;52.308;20.994;2023-01-25T09:26:47;37.30;;;32.23;;
17482;SDS011;8858;52.308;20.994;2023-01-25T09:29:25;37.03;;;26.60;;
17482;SDS011;8858;52.308;20.994;2023-01-25T09:31:55;33.70;;;25.50;;
17482;SDS011;8858;52.308;20.994;2023-01-25T09:34:30;37.07;;;26.77;;
17482;SDS011;8858;52.308;20.994;2023-01-25T09:37:02;37.43;;;26.50;;
17482;SDS011;8858;52.308;20.994;2023-01-25T09:39:33;37.20;;;27.87;;
17482;SDS011;8858;52.308;20.994;2023-01-25T09:42:09;38.17;;;26.70;;
17482;SDS011;8858;52.308;20.994;2023-01-25T09:47:52;35.90;;;26.10;;
17482;SDS011;8858;52.308;20.994;2023-01-25T09:50:32;38.13;;;25.33;;
17482;SDS011;8858;52.308;20.994;2023-01-25T09:56:10;35.17;;;25.30;;
17482;SDS011;8858;52.308;20.994;2023-01-25T09:58:43;35.20;;;25.50;;
17482;SDS011;8858;52.308;20.994;2023-01-25T10:01:16;38.40;;;26.47;;
17482;SDS011;8858;52.308;20.994;2023-01-25T10:04:04;38.70;;;27.20;;
17482;SDS011;8858;52.308;20.994;2023-01-25T10:06:41;38.47;;;27.00;;
17482;SDS011;8858;52.308;20.994;2023-01-25T10:09:28;38.27;;;27.43;;
17482;SDS011;8858;52.308;20.994;2023-01-25T10:12:08;38.40;;;26.83;;
17482;SDS011;8858;52.308;20.994;2023-01-25T10:14:42;37.30;;;26.97;;
17482;SDS011;8858;52.308;20.994;2023-01-25T10:17:12;38.03;;;27.27;;
17482;SDS011;8858;52.308;20.994;2023-01-25T10:19:53;41.33;;;29.27;;
17482;SDS011;8858;52.308;20.994;2023-01-25T10:22:40;42.97;;;28.80;;
17482;SDS011;8858;52.308;20.994;2023-01-25T10:25:18;38.70;;;28.43;;
17482;SDS011;8858;52.308;20.994;2023-01-25T10:27:59;40.60;;;27.67;;
17482;SDS011;8858;52.308;20.994;2023-01-25T10:30:47;37.87;;;27.87;;
17482;SDS011;8858;52.308;20.994;2023-01-25T10:33:21;36.23;;;26.27;;
17482;SDS011;8858;52.308;20.994;2023-01-25T10:35:50;37.33;;;27.53;;
17482;SDS011;8858;52.308;20.994;2023-01-25T10:38:20;36.63;;;26.50;;
17482;SDS011;8858;52.308;20.994;2023-01-25T10:40:54;39.43;;;27.03;;
17482;SDS011;8858;52.308;20.994;2023-01-25T10:43:29;36.13;;;25.73;;
17482;SDS011;8858;52.308;20.994;2023-01-25T10:46:01;37.03;;;26.93;;
17482;SDS011;8858;52.308;20.994;2023-01-25T10:48:32;43.10;;;28.90;;
17482;SDS011;8858;52.308;20.994;2023-01-25T10:51:01;42.87;;;28.23;;
17482;SDS011;8858;52.308;20.994;2023-01-25T10:53:32;37.57;;;28.50;;
17482;SDS011;8858;52.308;20.994;2023-01-25T10:56:02;40.23;;;28.77;;
17482;SDS011;8858;52.308;20.994;2023-01-25T10:58:47;40.37;;;29.27;;
17482;SDS011;8858;52.308;20.994;2023-01-25T11:01:26;44.27;;;30.20;;
17482;SDS011;8858;52.308;20.994;2023-01-25T11:03:57;38.33;;;28.27;;
17482;SDS011;8858;52.308;20.994;2023-01-25T11:06:28;40.40;;;28.93;;
17482;SDS011;8858;52.308;20.994;2023-01-25T11:08:59;38.23;;;28.10;;
17482;SDS011;8858;52.308;20.994;2023-01-25T11:11:33;37.73;;;27.37;;
17482;SDS011;8858;52.308;20.994;2023-01-25T11:14:15;38.00;;;26.50;;
17482;SDS011;8858;52.308;20.994;2023-01-25T11:16:47;40.33;;;26.70;;
17482;SDS011;8858;52.308;20.994;2023-01-25T11:19:23;42.37;;;29.47;;
17482;SDS011;8858;52.308;20.994;2023-01-25T11:21:58;41.00;;;28.13;;
17482;SDS011;8858;52.308;20.994;2023-01-25T11:24:27;38.50;;;26.80;;
17482;SDS011;8858;52.308;20.994;2023-01-25T11:27:14;41.37;;;28.17;;
17482;SDS011;8858;52.308;20.994;2023-01-25T11:32:38;36.67;;;27.13;;
17482;SDS011;8858;52.308;20.994;2023-01-25T11:35:11;41.00;;;28.27;;
17482;SDS011;8858;52.308;20.994;2023-01-25T11:37:49;39.77;;;27.87;;
17482;SDS011;8858;52.308;20.994;2023-01-25T11:40:31;40.07;;;29.53;;
17482;SDS011;8858;52.308;20.994;2023-01-25T11:43:07;40.80;;;27.10;;
17482;SDS011;8858;52.308;20.994;2023-01-25T11:46:06;41.77;;;28.70;;
17482;SDS011;8858;52.308;20.994;2023-01-25T11:48:56;37.87;;;26.87;;
17482;SDS011;8858;52.308;20.994;2023-01-25T11:51:39;40.00;;;28.07;;
17482;SDS011;8858;52.308;20.994;2023-01-25T11:57:15;42.63;;;28.87;;
17482;SDS011;8858;52.308;20.994;2023-01-25T12:00:02;41.60;;;27.53;;
17482;SDS011;8858;52.308;20.994;2023-01-25T12:05:54;37.00;;;26.50;;
17482;SDS011;8858;52.308;20.994;2023-01-25T12:08:34;41.53;;;27.43;;
17482;SDS011;8858;52.308;20.994;2023-01-25T12:11:13;38.20;;;26.67;;
17482;SDS011;8858;52.308;20.994;2023-01-25T12:13:52;39.47;;;27.47;;
17482;SDS011;8858;52.308;20.994;2023-01-25T12:16:34;39.90;;;26.80;;
17482;SDS011;8858;52.308;20.994;2023-01-25T12:19:24;40.50;;;27.50;;
17482;SDS011;8858;52.308;20.994;2023-01-25T12:22:22;39.00;;;27.60;;
17482;SDS011;8858;52.308;20.994;2023-01-25T12:25:16;36.57;;;26.30;;
17482;SDS011;8858;52.308;20.994;2023-01-25T12:28:00;37.10;;;27.00;;
17482;SDS011;8858;52.308;20.994;2023-01-25T12:30:41;42.17;;;28.40;;
17482;SDS011;8858;52.308;20.994;2023-01-25T12:33:17;39.70;;;26.83;;
17482;SDS011;8858;52.308;20.994;2023-01-25T12:35:51;35.93;;;27.30;;
17482;SDS011;8858;52.308;20.994;2023-01-25T12:38:26;39.83;;;28.10;;
17482;SDS011;8858;52.308;20.994;2023-01-25T12:41:01;38.47;;;27.70;;
17482;SDS011;8858;52.308;20.994;2023-01-25T12:43:36;36.73;;;26.00;;
17482;SDS011;8858;52.308;20.994;2023-01-25T12:46:09;39.27;;;26.37;;
17482;SDS011;8858;52.308;20.994;2023-01-25T12:48:43;37.10;;;26.77;;
17482;SDS011;8858;52.308;20.994;2023-01-25T12:51:16;43.40;;;28.27;;
17482;SDS011;8858;52.308;20.994;2023-01-25T12:53:48;40.07;;;28.27;;
17482;SDS011;8858;52.308;20.994;2023-01-25T12:56:24;38.70;;;27.80;;
17482;SDS011;8858;52.308;20.994;2023-01-25T12:59:00;38.13;;;26.57;;
17482;SDS011;8858;52.308;20.994;2023-01-25T13:01:40;38.60;;;27.43;;
17482;SDS011;8858;52.308;20.994;2023-01-25T13:04:19;38.73;;;26.50;;
17482;SDS011;8858;52.308;20.994;2023-01-25T13:07:09;38.43;;;27.00;;
17482;SDS011;8858;52.308;20.994;2023-01-25T13:09:51;37.27;;;27.47;;
17482;SDS011;8858;52.308;20.994;2023-01-25T13:12:27;38.53;;;26.63;;
17482;SDS011;8858;52.308;20.994;2023-01-25T13:14:56;40.23;;;25.87;;
17482;SDS011;8858;52.308;20.994;2023-01-25T13:17:28;43.20;;;28.87;;
17482;SDS011;8858;52.308;20.994;2023-01-25T13:20:07;43.00;;;27.37;;
17482;SDS011;8858;52.308;20.994;2023-01-25T13:23:25;40.33;;;26.90;;
17482;SDS011;8858;52.308;20.994;2023-01-25T13:29:07;37.50;;;26.53;;
17482;SDS011;8858;52.308;20.994;2023-01-25T13:35:33;43.40;;;28.77;;
17482;SDS011;8858;52.308;20.994;2023-01-25T13:38:27;46.50;;;28.53;;
17482;SDS011;8858;52.308;20.994;2023-01-25T13:41:12;41.63;;;26.83;;
17482;SDS011;8858;52.308;20.994;2023-01-25T13:43:46;40.57;;;28.20;;
17482;SDS011;8858;52.308;20.994;2023-01-25T13:46:20;43.07;;;28.23;;
17482;SDS011;8858;52.308;20.994;2023-01-25T13:48:53;42.50;;;28.10;;
17482;SDS011;8858;52.308;20.994;2023-01-25T13:51:25;38.97;;;26.57;;
17482;SDS011;8858;52.308;20.994;2023-01-25T13:53:57;38.57;;;27.23;;
17482;SDS011;8858;52.308;20.994;2023-01-25T13:56:30;38.17;;;27.33;;
17482;SDS011;8858;52.308;20.994;2023-01-25T13:59:01;38.30;;;26.70;;
17482;SDS011;8858;52.308;20.994;2023-01-25T14:01:31;40.97;;;27.27;;
17482;SDS011;8858;52.308;20.994;2023-01-25T14:04:02;42.33;;;27.73;;
17482;SDS011;8858;52.308;20.994;2023-01-25T14:06:33;37.13;;;25.53;;
17482;SDS011;8858;52.308;20.994;2023-01-25T14:09:10;42.83;;;28.40;;
17482;SDS011;8858;52.308;20.994;2023-01-25T14:11:43;43.13;;;30.57;;
17482;SDS011;8858;52.308;20.994;2023-01-25T14:14:19;47.90;;;29.43;;
17482;SDS011;8858;52.308;20.994;2023-01-25T14:17:02;43.67;;;27.47;;
17482;SDS011;8858;52.308;20.994;2023-01-25T14:19:38;44.83;;;28.97;;
17482;SDS011;8858;52.308;20.994;2023-01-25T14:25:00;43.13;;;27.87;;
17482;SDS011;8858;52.308;20.994;2023-01-25T14:27:32;39.80;;;26.23;;
17482;SDS011;8858;52.308;20.994;2023-01-25T14:30:01;42.63;;;28.17;;
17482;SDS011;8858;52.308;20.994;2023-01-25T14:32:32;41.13;;;26.40;;
17482;SDS011;8858;52.308;20.994;2023-01-25T14:38:23;36.83;;;25.83;;
17482;SDS011;8858;52.308;20.994;2023-01-25T14:40:54;41.53;;;25.73;;
17482;SDS011;8858;52.308;20.994;2023-01-25T14:43:24;36.90;;;25.60;;
17482;SDS011;8858;52.308;20.994;2023-01-25T14:45:55;39.50;;;26.67;;
17482;SDS011;8858;52.308;20.994;2023-01-25T14:48:35;42.43;;;27.40;;
17482;SDS011;8858;52.308;20.994;2023-01-25T14:51:10;43.83;;;27.53;;
17482;SDS011;8858;52.308;20.994;2023-01-25T14:53:43;42.73;;;28.70;;
17482;SDS011;8858;52.308;20.994;2023-01-25T14:56:26;43.50;;;27.90;;
17482;SDS011;8858;52.308;20.994;2023-01-25T14:59:02;42.87;;;27.33;;
17482;SDS011;8858;52.308;20.994;2023-01-25T15:01:33;43.53;;;29.03;;
17482;SDS011;8858;52.308;20.994;2023-01-25T15:04:11;43.97;;;27.97;;
17482;SDS011;8858;52.308;20.994;2023-01-25T15:06:47;44.77;;;28.03;;
17482;SDS011;8858;52.308;20.994;2023-01-25T15:09:30;42.77;;;27.17;;
17482;SDS011;8858;52.308;20.994;2023-01-25T15:12:01;48.97;;;29.83;;
17482;SDS011;8858;52.308;20.994;2023-01-25T15:14:31;49.53;;;30.37;;
17482;SDS011;8858;52.308;20.994;2023-01-25T15:16:59;45.50;;;28.60;;
17482;SDS011;8858;52.308;20.994;2023-01-25T15:19:32;45.40;;;28.27;;
17482;SDS011;8858;52.308;20.994;2023-01-25T15:22:01;42.27;;;28.77;;
17482;SDS011;8858;52.308;20.994;2023-01-25T15:24:31;42.63;;;27.70;;
17482;SDS011;8858;52.308;20.994;2023-01-25T15:26:59;39.97;;;26.77;;